sensor_id;sensor_type;location;lat;lon;timestamp;pressure;altitude;pressure_sealevel;temperature;humidity
26859;BME280;14429;48.346;16.338;2024-01-30T00:02:22;101669.56;;;4.07;70.61
26859;BME280;14429;48.346;16.338;2024-01-30T00:04:47;101676.19;;;4.41;70.38
26859;BME280;14429;48.346;16.338;2024-01-30T00:07:13;101666.13;;;4.69;69.94
26859;BME280;14429;48.346;16.338;2024-01-30T00:09:38;101668.69;;;5.30;68.26
26859;BME280;14429;48.346;16.338;2024-01-30T00:12:04;101684.13;;;4.38;68.08
26859;BME280;14429;48.346;16.338;2024-01-30T00:14:31;101666.53;;;5.53;66.78
26859;BME280;14429;48.346;16.338;2024-01-30T00:16:57;101667.94;;;4.64;67.18
26859;BME280;14429;48.346;16.338;2024-01-30T00:19:22;101662.44;;;4.79;67.46
26859;BME280;14429;48.346;16.338;2024-01-30T00:21:47;101668.88;;;5.18;67.87
26859;BME280;14429;48.346;16.338;2024-01-30T00:24:13;101679.16;;;4.80;68.92
26859;BME280;14429;48.346;16.338;2024-01-30T00:26:38;101672.59;;;5.06;69.03
26859;BME280;14429;48.346;16.338;2024-01-30T00:29:04;101668.78;;;5.24;66.58
26859;BME280;14429;48.346;16.338;2024-01-30T00:31:31;101673.47;;;5.60;65.68
26859;BME280;14429;48.346;16.338;2024-01-30T00:33:56;101676.81;;;5.17;65.47
26859;BME280;14429;48.346;16.338;2024-01-30T00:36:22;101679.53;;;5.12;67.55
26859;BME280;14429;48.346;16.338;2024-01-30T00:38:47;101677.19;;;5.47;65.23
26859;BME280;14429;48.346;16.338;2024-01-30T00:41:13;101676.03;;;5.12;66.17
26859;BME280;14429;48.346;16.338;2024-01-30T00:43:39;101676.13;;;5.05;66.36
26859;BME280;14429;48.346;16.338;2024-01-30T00:46:04;101676.34;;;4.93;67.13
26859;BME280;14429;48.346;16.338;2024-01-30T00:48:31;101673.09;;;5.30;66.97
26859;BME280;14429;48.346;16.338;2024-01-30T00:50:56;101673.09;;;5.30;65.77
26859;BME280;14429;48.346;16.338;2024-01-30T00:53:22;101670.25;;;5.41;64.59
26859;BME280;14429;48.346;16.338;2024-01-30T00:55:47;101670.28;;;5.40;63.96
26859;BME280;14429;48.346;16.338;2024-01-30T00:58:12;101660.69;;;5.85;65.88
26859;BME280;14429;48.346;16.338;2024-01-30T01:00:39;101661.81;;;5.19;64.84
26859;BME280;14429;48.346;16.338;2024-01-30T01:03:04;101662.94;;;4.42;67.51
26859;BME280;14429;48.346;16.338;2024-01-30T01:05:31;101651.97;;;4.73;67.77
26859;BME280;14429;48.346;16.338;2024-01-30T01:07:56;101649.25;;;4.78;67.22
26859;BME280;14429;48.346;16.338;2024-01-30T01:10:22;101664.84;;;4.33;68.32
26859;BME280;14429;48.346;16.338;2024-01-30T01:12:47;101650.53;;;5.08;67.19
26859;BME280;14429;48.346;16.338;2024-01-30T01:15:13;101656.69;;;5.09;68.34
26859;BME280;14429;48.346;16.338;2024-01-30T01:17:39;101654.47;;;4.82;67.01
26859;BME280;14429;48.346;16.338;2024-01-30T01:20:05;101643.38;;;4.59;67.39
26859;BME280;14429;48.346;16.338;2024-01-30T01:22:33;101651.19;;;4.67;68.03
26859;BME280;14429;48.346;16.338;2024-01-30T01:24:59;101642.22;;;4.78;68.04
26859;BME280;14429;48.346;16.338;2024-01-30T01:27:24;101650.28;;;4.01;69.20
26859;BME280;14429;48.346;16.338;2024-01-30T01:29:50;101639.47;;;4.22;69.67
26859;BME280;14429;48.346;16.338;2024-01-30T01:32:15;101640.47;;;4.13;69.64
26859;BME280;14429;48.346;16.338;2024-01-30T01:34:41;101642.44;;;3.94;70.18
26859;BME280;14429;48.346;16.338;2024-01-30T01:37:06;101632.31;;;4.92;66.77
26859;BME280;14429;48.346;16.338;2024-01-30T01:39:33;101631.97;;;5.12;66.52
26859;BME280;14429;48.346;16.338;2024-01-30T01:41:58;101635.94;;;4.85;66.53
26859;BME280;14429;48.346;16.338;2024-01-30T01:44:24;101637.25;;;4.56;67.31
26859;BME280;14429;48.346;16.338;2024-01-30T01:46:49;101634.88;;;4.95;67.04
26859;BME280;14429;48.346;16.338;2024-01-30T01:49:15;101636.53;;;5.03;66.00
26859;BME280;14429;48.346;16.338;2024-01-30T01:51:42;101633.75;;;4.56;67.61
26859;BME280;14429;48.346;16.338;2024-01-30T01:54:08;101630.53;;;4.91;67.08
26859;BME280;14429;48.346;16.338;2024-01-30T01:56:35;101631.88;;;5.18;68.41
26859;BME280;14429;48.346;16.338;2024-01-30T01:59:06;101632.16;;;5.01;66.78
26859;BME280;14429;48.346;16.338;2024-01-30T02:01:32;101635.50;;;4.54;67.73
26859;BME280;14429;48.346;16.338;2024-01-30T02:03:58;101626.59;;;5.18;67.60
26859;BME280;14429;48.346;16.338;2024-01-30T02:06:24;101625.16;;;5.47;66.69
26859;BME280;14429;48.346;16.338;2024-01-30T02:08:49;101635.22;;;4.74;67.27
26859;BME280;14429;48.346;16.338;2024-01-30T02:11:15;101627.91;;;4.91;68.66
26859;BME280;14429;48.346;16.338;2024-01-30T02:13:42;101616.03;;;5.64;66.48
26859;BME280;14429;48.346;16.338;2024-01-30T02:16:07;101622.69;;;4.88;65.67
26859;BME280;14429;48.346;16.338;2024-01-30T02:18:33;101617.84;;;5.13;66.22
26859;BME280;14429;48.346;16.338;2024-01-30T02:23:27;101614.06;;;5.29;64.21
26859;BME280;14429;48.346;16.338;2024-01-30T02:25:52;101605.38;;;5.69;66.02
26859;BME280;14429;48.346;16.338;2024-01-30T02:28:18;101613.84;;;5.41;64.72
26859;BME280;14429;48.346;16.338;2024-01-30T02:30:43;101610.03;;;5.57;64.01
26859;BME280;14429;48.346;16.338;2024-01-30T02:33:09;101608.44;;;5.47;63.56
26859;BME280;14429;48.346;16.338;2024-01-30T02:35:34;101606.41;;;5.14;64.32
26859;BME280;14429;48.346;16.338;2024-01-30T02:38:00;101618.94;;;5.01;64.52
26859;BME280;14429;48.346;16.338;2024-01-30T02:40:26;101609.63;;;6.22;63.99
26859;BME280;14429;48.346;16.338;2024-01-30T02:42:52;101607.34;;;6.04;63.60
26859;BME280;14429;48.346;16.338;2024-01-30T02:45:18;101607.06;;;6.18;63.59
26859;BME280;14429;48.346;16.338;2024-01-30T02:47:43;101608.56;;;6.30;63.56
26859;BME280;14429;48.346;16.338;2024-01-30T02:50:09;101613.34;;;5.70;64.89
26859;BME280;14429;48.346;16.338;2024-01-30T02:52:35;101609.84;;;6.52;62.13
26859;BME280;14429;48.346;16.338;2024-01-30T02:55:00;101604.09;;;6.32;63.90
26859;BME280;14429;48.346;16.338;2024-01-30T02:57:27;101605.16;;;5.81;62.21
26859;BME280;14429;48.346;16.338;2024-01-30T02:59:53;101614.78;;;5.86;61.10
26859;BME280;14429;48.346;16.338;2024-01-30T03:02:18;101605.78;;;5.96;61.62
26859;BME280;14429;48.346;16.338;2024-01-30T03:04:44;101603.22;;;6.33;62.12
26859;BME280;14429;48.346;16.338;2024-01-30T03:07:09;101594.88;;;6.11;61.73
26859;BME280;14429;48.346;16.338;2024-01-30T03:09:36;101608.16;;;5.62;61.94
26859;BME280;14429;48.346;16.338;2024-01-30T03:12:02;101603.97;;;6.37;62.16
26859;BME280;14429;48.346;16.338;2024-01-30T03:14:30;101601.03;;;5.65;61.56
26859;BME280;14429;48.346;16.338;2024-01-30T03:16:56;101602.91;;;5.60;62.24
26859;BME280;14429;48.346;16.338;2024-01-30T03:19:21;101606.81;;;4.89;63.95
26859;BME280;14429;48.346;16.338;2024-01-30T03:21:46;101605.44;;;5.18;62.43
26859;BME280;14429;48.346;16.338;2024-01-30T03:24:12;101604.50;;;5.68;63.52
26859;BME280;14429;48.346;16.338;2024-01-30T03:26:37;101603.03;;;6.41;62.63
26859;BME280;14429;48.346;16.338;2024-01-30T03:29:03;101608.03;;;5.70;61.17
26859;BME280;14429;48.346;16.338;2024-01-30T03:31:30;101608.25;;;5.59;62.97
26859;BME280;14429;48.346;16.338;2024-01-30T03:33:55;101612.91;;;4.91;64.15
26859;BME280;14429;48.346;16.338;2024-01-30T03:36:20;101609.34;;;5.93;63.00
26859;BME280;14429;48.346;16.338;2024-01-30T03:38:46;101605.53;;;4.57;64.81
26859;BME280;14429;48.346;16.338;2024-01-30T03:41:11;101611.50;;;4.71;65.76
26859;BME280;14429;48.346;16.338;2024-01-30T03:43:37;101608.94;;;4.65;65.81
26859;BME280;14429;48.346;16.338;2024-01-30T03:46:02;101614.50;;;5.04;66.61
26859;BME280;14429;48.346;16.338;2024-01-30T03:48:29;101612.72;;;5.05;65.08
26859;BME280;14429;48.346;16.338;2024-01-30T03:50:55;101618.50;;;4.72;65.71
26859;BME280;14429;48.346;16.338;2024-01-30T03:53:22;101623.28;;;4.48;65.88
26859;BME280;14429;48.346;16.338;2024-01-30T03:55:47;101623.38;;;4.39;65.70
26859;BME280;14429;48.346;16.338;2024-01-30T03:58:13;101612.97;;;4.32;66.60
26859;BME280;14429;48.346;16.338;2024-01-30T04:00:39;101618.94;;;3.75;67.79
26859;BME280;14429;48.346;16.338;2024-01-30T04:03:04;101620.13;;;4.21;67.08
26859;BME280;14429;48.346;16.338;2024-01-30T04:05:31;101616.06;;;3.95;67.85
26859;BME280;14429;48.346;16.338;2024-01-30T04:07:57;101618.34;;;4.25;68.10
26859;BME280;14429;48.346;16.338;2024-01-30T04:10:23;101614.69;;;4.33;67.01
26859;BME280;14429;48.346;16.338;2024-01-30T04:12:48;101610.00;;;4.53;68.20
26859;BME280;14429;48.346;16.338;2024-01-30T04:15:14;101615.81;;;4.14;67.55
26859;BME280;14429;48.346;16.338;2024-01-30T04:17:39;101613.50;;;3.89;66.83
26859;BME280;14429;48.346;16.338;2024-01-30T04:20:05;101604.94;;;4.38;67.24
26859;BME280;14429;48.346;16.338;2024-01-30T04:22:32;101615.34;;;3.81;68.07
26859;BME280;14429;48.346;16.338;2024-01-30T04:24:58;101597.59;;;5.14;65.18
26859;BME280;14429;48.346;16.338;2024-01-30T04:27:23;101604.00;;;4.42;66.31
26859;BME280;14429;48.346;16.338;2024-01-30T04:29:48;101607.06;;;4.09;68.30
26859;BME280;14429;48.346;16.338;2024-01-30T04:32:14;101616.41;;;3.66;68.86
26859;BME280;14429;48.346;16.338;2024-01-30T04:34:39;101603.75;;;3.94;67.85
26859;BME280;14429;48.346;16.338;2024-01-30T04:37:05;101601.41;;;4.39;66.79
26859;BME280;14429;48.346;16.338;2024-01-30T04:39:32;101596.47;;;4.75;66.35
26859;BME280;14429;48.346;16.338;2024-01-30T04:41:58;101605.78;;;3.73;68.76
26859;BME280;14429;48.346;16.338;2024-01-30T04:44:23;101605.75;;;5.01;66.57
26859;BME280;14429;48.346;16.338;2024-01-30T04:46:49;101607.28;;;5.13;67.01
26859;BME280;14429;48.346;16.338;2024-01-30T04:49:14;101597.34;;;6.18;64.04
26859;BME280;14429;48.346;16.338;2024-01-30T04:51:39;101601.13;;;5.61;61.67
26859;BME280;14429;48.346;16.338;2024-01-30T04:54:05;101608.28;;;6.02;60.64
26859;BME280;14429;48.346;16.338;2024-01-30T04:56:32;101611.00;;;6.39;60.84
26859;BME280;14429;48.346;16.338;2024-01-30T04:58:57;101609.44;;;5.89;62.65
26859;BME280;14429;48.346;16.338;2024-01-30T05:01:22;101606.75;;;5.91;60.58
26859;BME280;14429;48.346;16.338;2024-01-30T05:03:48;101611.19;;;5.90;61.86
26859;BME280;14429;48.346;16.338;2024-01-30T05:06:24;101603.44;;;6.21;61.20
26859;BME280;14429;48.346;16.338;2024-01-30T05:08:49;101612.84;;;6.74;58.88
26859;BME280;14429;48.346;16.338;2024-01-30T05:11:15;101619.75;;;5.55;60.38
26859;BME280;14429;48.346;16.338;2024-01-30T05:13:41;101614.53;;;6.40;60.15
26859;BME280;14429;48.346;16.338;2024-01-30T05:16:07;101616.03;;;6.51;60.05
26859;BME280;14429;48.346;16.338;2024-01-30T05:18:32;101614.88;;;6.64;59.88
26859;BME280;14429;48.346;16.338;2024-01-30T05:20:58;101620.53;;;7.21;59.12
26859;BME280;14429;48.346;16.338;2024-01-30T05:23:23;101613.06;;;7.01;56.85
26859;BME280;14429;48.346;16.338;2024-01-30T05:25:48;101617.88;;;7.55;57.68
26859;BME280;14429;48.346;16.338;2024-01-30T05:28:14;101605.22;;;7.97;57.52
26859;BME280;14429;48.346;16.338;2024-01-30T05:30:40;101618.97;;;6.76;55.09
26859;BME280;14429;48.346;16.338;2024-01-30T05:33:06;101615.59;;;7.42;57.72
26859;BME280;14429;48.346;16.338;2024-01-30T05:35:31;101617.78;;;7.25;55.74
26859;BME280;14429;48.346;16.338;2024-01-30T05:37:57;101611.31;;;7.99;56.90
26859;BME280;14429;48.346;16.338;2024-01-30T05:40:22;101616.25;;;8.14;56.74
26859;BME280;14429;48.346;16.338;2024-01-30T05:42:48;101614.13;;;7.95;55.88
26859;BME280;14429;48.346;16.338;2024-01-30T05:45:13;101611.94;;;8.10;56.02
26859;BME280;14429;48.346;16.338;2024-01-30T05:47:40;101621.72;;;7.09;53.77
26859;BME280;14429;48.346;16.338;2024-01-30T05:50:06;101624.41;;;7.08;54.92
26859;BME280;14429;48.346;16.338;2024-01-30T05:52:32;101625.47;;;7.35;56.14
26859;BME280;14429;48.346;16.338;2024-01-30T05:54:57;101623.78;;;7.97;56.62
26859;BME280;14429;48.346;16.338;2024-01-30T05:57:23;101620.03;;;8.04;56.48
26859;BME280;14429;48.346;16.338;2024-01-30T05:59:48;101618.72;;;7.88;56.59
26859;BME280;14429;48.346;16.338;2024-01-30T06:02:14;101621.28;;;7.60;56.45
26859;BME280;14429;48.346;16.338;2024-01-30T06:04:41;101628.28;;;7.64;57.77
26859;BME280;14429;48.346;16.338;2024-01-30T06:07:06;101624.88;;;7.90;56.71
26859;BME280;14429;48.346;16.338;2024-01-30T06:09:31;101617.47;;;8.33;55.78
26859;BME280;14429;48.346;16.338;2024-01-30T06:11:57;101628.13;;;7.68;54.98
26859;BME280;14429;48.346;16.338;2024-01-30T06:14:22;101626.81;;;7.84;54.75
26859;BME280;14429;48.346;16.338;2024-01-30T06:16:48;101643.28;;;7.30;56.74
26859;BME280;14429;48.346;16.338;2024-01-30T06:19:13;101640.41;;;6.66;55.23
26859;BME280;14429;48.346;16.338;2024-01-30T06:21:40;101639.41;;;7.43;57.72
26859;BME280;14429;48.346;16.338;2024-01-30T06:24:05;101647.38;;;7.43;57.41
26859;BME280;14429;48.346;16.338;2024-01-30T06:26:31;101647.56;;;7.00;56.40
26859;BME280;14429;48.346;16.338;2024-01-30T06:28:56;101653.03;;;7.63;57.16
26859;BME280;14429;48.346;16.338;2024-01-30T06:31:22;101645.44;;;6.41;56.80
26859;BME280;14429;48.346;16.338;2024-01-30T06:33:47;101656.78;;;6.84;56.75
26859;BME280;14429;48.346;16.338;2024-01-30T06:36:13;101647.31;;;7.45;58.29
26859;BME280;14429;48.346;16.338;2024-01-30T06:38:40;101657.56;;;7.59;57.26
26859;BME280;14429;48.346;16.338;2024-01-30T06:41:05;101659.41;;;7.22;56.56
26859;BME280;14429;48.346;16.338;2024-01-30T06:43:31;101661.06;;;6.51;57.10
26859;BME280;14429;48.346;16.338;2024-01-30T06:45:56;101657.22;;;7.02;57.52
26859;BME280;14429;48.346;16.338;2024-01-30T06:48:22;101662.63;;;7.35;57.75
26859;BME280;14429;48.346;16.338;2024-01-30T06:50:47;101656.63;;;7.62;57.33
26859;BME280;14429;48.346;16.338;2024-01-30T06:53:13;101663.03;;;7.53;56.40
26859;BME280;14429;48.346;16.338;2024-01-30T06:55:39;101654.00;;;8.25;55.91
26859;BME280;14429;48.346;16.338;2024-01-30T06:58:05;101665.91;;;7.79;55.75
26859;BME280;14429;48.346;16.338;2024-01-30T07:00:31;101656.59;;;8.28;55.63
26859;BME280;14429;48.346;16.338;2024-01-30T07:02:56;101663.25;;;7.78;55.72
26859;BME280;14429;48.346;16.338;2024-01-30T07:05:22;101667.44;;;8.19;55.48
26859;BME280;14429;48.346;16.338;2024-01-30T07:07:47;101655.31;;;8.40;55.32
26859;BME280;14429;48.346;16.338;2024-01-30T07:10:13;101661.47;;;7.79;53.05
26859;BME280;14429;48.346;16.338;2024-01-30T07:12:40;101657.41;;;7.97;55.79
26859;BME280;14429;48.346;16.338;2024-01-30T07:15:05;101665.25;;;7.70;55.29
26859;BME280;14429;48.346;16.338;2024-01-30T07:17:31;101662.72;;;8.30;55.50
26859;BME280;14429;48.346;16.338;2024-01-30T07:19:56;101675.38;;;7.56;54.26
26859;BME280;14429;48.346;16.338;2024-01-30T07:22:22;101678.41;;;7.74;54.38
26859;BME280;14429;48.346;16.338;2024-01-30T07:24:47;101689.28;;;7.98;53.86
26859;BME280;14429;48.346;16.338;2024-01-30T07:27:14;101677.22;;;7.85;55.43
26859;BME280;14429;48.346;16.338;2024-01-30T07:29:41;101677.84;;;7.63;54.82
26859;BME280;14429;48.346;16.338;2024-01-30T07:32:06;101669.03;;;7.93;55.91
26859;BME280;14429;48.346;16.338;2024-01-30T07:34:31;101679.13;;;7.12;56.61
26859;BME280;14429;48.346;16.338;2024-01-30T07:36:57;101676.03;;;7.64;56.04
26859;BME280;14429;48.346;16.338;2024-01-30T07:39:23;101669.41;;;7.79;56.36
26859;BME280;14429;48.346;16.338;2024-01-30T07:41:48;101678.47;;;7.38;57.57
26859;BME280;14429;48.346;16.338;2024-01-30T07:44:13;101671.28;;;7.76;56.57
26859;BME280;14429;48.346;16.338;2024-01-30T07:46:40;101679.72;;;6.87;54.65
26859;BME280;14429;48.346;16.338;2024-01-30T07:49:06;101668.84;;;8.00;56.02
26859;BME280;14429;48.346;16.338;2024-01-30T07:51:31;101682.34;;;7.58;54.53
26859;BME280;14429;48.346;16.338;2024-01-30T07:53:59;101684.19;;;7.89;54.19
26859;BME280;14429;48.346;16.338;2024-01-30T07:56:25;101682.97;;;7.69;56.07
26859;BME280;14429;48.346;16.338;2024-01-30T07:58:50;101675.56;;;8.14;55.57
26859;BME280;14429;48.346;16.338;2024-01-30T08:01:15;101685.88;;;7.59;54.82
26859;BME280;14429;48.346;16.338;2024-01-30T08:03:42;101689.00;;;7.41;54.65
26859;BME280;14429;48.346;16.338;2024-01-30T08:06:08;101684.94;;;7.94;55.86
26859;BME280;14429;48.346;16.338;2024-01-30T08:08:33;101683.00;;;8.01;54.86
26859;BME280;14429;48.346;16.338;2024-01-30T08:10:58;101683.59;;;8.43;54.68
26859;BME280;14429;48.346;16.338;2024-01-30T08:13:24;101690.28;;;8.26;52.56
26859;BME280;14429;48.346;16.338;2024-01-30T08:15:49;101694.59;;;8.61;54.47
26859;BME280;14429;48.346;16.338;2024-01-30T08:18:15;101696.81;;;8.14;54.90
26859;BME280;14429;48.346;16.338;2024-01-30T08:20:41;101698.03;;;8.34;54.54
26859;BME280;14429;48.346;16.338;2024-01-30T08:23:07;101693.59;;;8.33;54.20
26859;BME280;14429;48.346;16.338;2024-01-30T08:25:32;101690.06;;;8.64;54.33
26859;BME280;14429;48.346;16.338;2024-01-30T08:27:58;101693.97;;;8.52;53.35
26859;BME280;14429;48.346;16.338;2024-01-30T08:30:23;101701.09;;;8.20;53.09
26859;BME280;14429;48.346;16.338;2024-01-30T08:32:49;101698.41;;;8.51;53.54
26859;BME280;14429;48.346;16.338;2024-01-30T08:35:14;101694.13;;;8.76;53.18
26859;BME280;14429;48.346;16.338;2024-01-30T08:37:41;101692.97;;;8.84;53.43
26859;BME280;14429;48.346;16.338;2024-01-30T08:40:07;101686.59;;;8.89;52.34
26859;BME280;14429;48.346;16.338;2024-01-30T08:42:33;101688.16;;;8.96;52.63
26859;BME280;14429;48.346;16.338;2024-01-30T08:44:58;101691.66;;;8.98;52.40
26859;BME280;14429;48.346;16.338;2024-01-30T08:47:23;101685.94;;;9.10;52.29
26859;BME280;14429;48.346;16.338;2024-01-30T08:49:49;101688.44;;;9.16;51.99
26859;BME280;14429;48.346;16.338;2024-01-30T08:52:14;101676.88;;;9.17;51.77
26859;BME280;14429;48.346;16.338;2024-01-30T08:54:41;101678.69;;;9.15;52.41
26859;BME280;14429;48.346;16.338;2024-01-30T08:57:06;101678.78;;;9.12;50.51
26859;BME280;14429;48.346;16.338;2024-01-30T08:59:32;101683.06;;;9.17;51.16
26859;BME280;14429;48.346;16.338;2024-01-30T09:01:57;101684.78;;;9.18;51.57
26859;BME280;14429;48.346;16.338;2024-01-30T09:04:23;101678.50;;;9.21;51.58
26859;BME280;14429;48.346;16.338;2024-01-30T09:06:49;101678.91;;;9.09;51.84
26859;BME280;14429;48.346;16.338;2024-01-30T09:09:14;101683.38;;;8.79;50.68
26859;BME280;14429;48.346;16.338;2024-01-30T09:11:41;101684.88;;;8.88;51.26
26859;BME280;14429;48.346;16.338;2024-01-30T09:14:06;101694.22;;;8.73;52.51
26859;BME280;14429;48.346;16.338;2024-01-30T09:16:32;101685.41;;;8.71;51.39
26859;BME280;14429;48.346;16.338;2024-01-30T09:18:57;101689.06;;;8.67;51.39
26859;BME280;14429;48.346;16.338;2024-01-30T09:21:23;101692.38;;;8.75;52.36
26859;BME280;14429;48.346;16.338;2024-01-30T09:23:48;101684.84;;;8.60;51.89
26859;BME280;14429;48.346;16.338;2024-01-30T09:26:14;101688.19;;;8.68;52.64
26859;BME280;14429;48.346;16.338;2024-01-30T09:28:41;101686.41;;;8.38;52.33
26859;BME280;14429;48.346;16.338;2024-01-30T09:31:09;101689.06;;;8.67;52.89
26859;BME280;14429;48.346;16.338;2024-01-30T09:33:35;101681.44;;;8.55;53.19
26859;BME280;14429;48.346;16.338;2024-01-30T09:36:00;101687.25;;;8.39;53.17
26859;BME280;14429;48.346;16.338;2024-01-30T09:38:25;101679.63;;;8.57;53.15
26859;BME280;14429;48.346;16.338;2024-01-30T09:40:54;101683.50;;;8.76;52.84
26859;BME280;14429;48.346;16.338;2024-01-30T09:43:22;101692.00;;;8.28;52.63
26859;BME280;14429;48.346;16.338;2024-01-30T09:45:50;101686.13;;;8.47;54.00
26859;BME280;14429;48.346;16.338;2024-01-30T09:48:15;101689.59;;;8.19;53.12
26859;BME280;14429;48.346;16.338;2024-01-30T09:50:40;101683.19;;;8.56;52.52
26859;BME280;14429;48.346;16.338;2024-01-30T09:53:08;101682.81;;;8.39;53.17
26859;BME280;14429;48.346;16.338;2024-01-30T09:55:34;101689.78;;;8.43;53.88
26859;BME280;14429;48.346;16.338;2024-01-30T09:58:01;101689.34;;;8.58;53.70
26859;BME280;14429;48.346;16.338;2024-01-30T10:00:26;101678.25;;;8.73;53.34
26859;BME280;14429;48.346;16.338;2024-01-30T10:02:53;101681.72;;;8.75;52.95
26859;BME280;14429;48.346;16.338;2024-01-30T10:05:19;101678.78;;;8.55;53.62
26859;BME280;14429;48.346;16.338;2024-01-30T10:07:52;101685.22;;;7.84;53.55
26859;BME280;14429;48.346;16.338;2024-01-30T10:10:17;101678.34;;;8.10;53.86
26859;BME280;14429;48.346;16.338;2024-01-30T10:12:43;101677.50;;;8.39;53.50
26859;BME280;14429;48.346;16.338;2024-01-30T10:15:08;101690.69;;;7.78;53.76
26859;BME280;14429;48.346;16.338;2024-01-30T10:17:37;101678.50;;;8.35;53.63
26859;BME280;14429;48.346;16.338;2024-01-30T10:20:06;101676.53;;;8.12;54.07
26859;BME280;14429;48.346;16.338;2024-01-30T10:22:32;101678.00;;;8.22;54.74
26859;BME280;14429;48.346;16.338;2024-01-30T10:24:57;101679.50;;;8.32;53.22
26859;BME280;14429;48.346;16.338;2024-01-30T10:27:25;101674.00;;;8.37;54.15
26859;BME280;14429;48.346;16.338;2024-01-30T10:29:50;101659.75;;;8.70;53.64
26859;BME280;14429;48.346;16.338;2024-01-30T10:32:17;101667.44;;;8.79;53.32
26859;BME280;14429;48.346;16.338;2024-01-30T10:34:42;101667.47;;;8.49;52.39
26859;BME280;14429;48.346;16.338;2024-01-30T10:37:10;101661.91;;;8.28;53.00
26859;BME280;14429;48.346;16.338;2024-01-30T10:39:38;101658.81;;;8.71;53.53
26859;BME280;14429;48.346;16.338;2024-01-30T10:42:05;101656.81;;;8.50;52.34
26859;BME280;14429;48.346;16.338;2024-01-30T10:44:36;101647.84;;;8.83;53.11
26859;BME280;14429;48.346;16.338;2024-01-30T10:47:06;101645.03;;;8.87;52.98
26859;BME280;14429;48.346;16.338;2024-01-30T10:49:33;101638.72;;;8.89;53.16
26859;BME280;14429;48.346;16.338;2024-01-30T10:51:59;101635.09;;;8.63;52.83
26859;BME280;14429;48.346;16.338;2024-01-30T10:54:27;101643.28;;;8.58;53.45
26859;BME280;14429;48.346;16.338;2024-01-30T10:56:54;101636.50;;;8.48;51.75
26859;BME280;14429;48.346;16.338;2024-01-30T10:59:22;101638.72;;;8.33;52.39
26859;BME280;14429;48.346;16.338;2024-01-30T11:01:49;101634.50;;;8.26;52.66
26859;BME280;14429;48.346;16.338;2024-01-30T11:04:15;101628.66;;;8.72;53.52
26859;BME280;14429;48.346;16.338;2024-01-30T11:06:41;101630.09;;;8.82;53.10
26859;BME280;14429;48.346;16.338;2024-01-30T11:09:10;101628.63;;;8.73;53.03
26859;BME280;14429;48.346;16.338;2024-01-30T11:11:49;101629.56;;;8.42;52.54
26859;BME280;14429;48.346;16.338;2024-01-30T11:14:15;101621.16;;;8.57;53.42
26859;BME280;14429;48.346;16.338;2024-01-30T11:16:40;101616.97;;;8.77;53.02
26859;BME280;14429;48.346;16.338;2024-01-30T11:19:10;101616.38;;;8.68;53.44
26859;BME280;14429;48.346;16.338;2024-01-30T11:21:41;101616.91;;;8.79;53.18
26859;BME280;14429;48.346;16.338;2024-01-30T11:24:07;101622.97;;;8.84;53.13
26859;BME280;14429;48.346;16.338;2024-01-30T11:26:33;101621.19;;;8.84;53.01
26859;BME280;14429;48.346;16.338;2024-01-30T11:29:03;101618.56;;;8.83;52.83
26859;BME280;14429;48.346;16.338;2024-01-30T11:31:28;101610.41;;;8.60;52.72
26859;BME280;14429;48.346;16.338;2024-01-30T11:33:53;101613.53;;;8.74;53.07
26859;BME280;14429;48.346;16.338;2024-01-30T11:36:21;101613.34;;;8.51;53.13
26859;BME280;14429;48.346;16.338;2024-01-30T11:38:50;101605.75;;;8.68;52.85
26859;BME280;14429;48.346;16.338;2024-01-30T11:41:16;101610.78;;;8.77;53.06
26859;BME280;14429;48.346;16.338;2024-01-30T11:43:41;101604.97;;;8.64;53.11
26859;BME280;14429;48.346;16.338;2024-01-30T11:46:08;101604.91;;;8.66;53.21
26859;BME280;14429;48.346;16.338;2024-01-30T11:48:33;101603.34;;;8.88;52.98
26859;BME280;14429;48.346;16.338;2024-01-30T11:50:59;101601.78;;;8.81;52.97
26859;BME280;14429;48.346;16.338;2024-01-30T11:53:24;101601.25;;;8.70;53.05
26859;BME280;14429;48.346;16.338;2024-01-30T11:55:50;101604.75;;;8.72;53.49
26859;BME280;14429;48.346;16.338;2024-01-30T11:58:15;101595.69;;;8.77;53.33
26859;BME280;14429;48.346;16.338;2024-01-30T12:00:41;101597.56;;;8.74;53.46
26859;BME280;14429;48.346;16.338;2024-01-30T12:03:08;101588.91;;;8.67;53.13
26859;BME280;14429;48.346;16.338;2024-01-30T12:05:36;101581.53;;;8.48;53.68
26859;BME280;14429;48.346;16.338;2024-01-30T12:08:01;101584.09;;;8.80;53.50
26859;BME280;14429;48.346;16.338;2024-01-30T12:10:27;101567.63;;;8.40;53.64
26859;BME280;14429;48.346;16.338;2024-01-30T12:12:53;101571.59;;;8.55;53.83
26859;BME280;14429;48.346;16.338;2024-01-30T12:15:21;101572.56;;;8.52;54.01
26859;BME280;14429;48.346;16.338;2024-01-30T12:17:47;101568.00;;;8.56;53.72
26859;BME280;14429;48.346;16.338;2024-01-30T12:20:15;101566.38;;;8.79;53.38
26859;BME280;14429;48.346;16.338;2024-01-30T12:22:41;101563.84;;;8.76;53.08
26859;BME280;14429;48.346;16.338;2024-01-30T12:25:08;101565.50;;;8.51;52.95
26859;BME280;14429;48.346;16.338;2024-01-30T12:27:33;101569.16;;;8.76;53.34
26859;BME280;14429;48.346;16.338;2024-01-30T12:29:59;101565.41;;;8.81;53.16
26859;BME280;14429;48.346;16.338;2024-01-30T12:32:24;101568.59;;;8.38;53.41
26859;BME280;14429;48.346;16.338;2024-01-30T12:34:50;101561.34;;;8.70;53.02
26859;BME280;14429;48.346;16.338;2024-01-30T12:37:17;101554.97;;;8.48;52.86
26859;BME280;14429;48.346;16.338;2024-01-30T12:39:42;101548.69;;;8.78;53.45
26859;BME280;14429;48.346;16.338;2024-01-30T12:42:08;101548.59;;;8.81;53.01
26859;BME280;14429;48.346;16.338;2024-01-30T12:44:34;101549.53;;;8.80;53.40
26859;BME280;14429;48.346;16.338;2024-01-30T12:47:02;101546.56;;;8.88;53.17